Time;durP1;ratioP1;P1;durP2;ratioP2;P2;SDS_P1;SDS_P2;PMS_P1;PMS_P2;Temp;Humidity;BMP_temperature;BMP_pressure;BME280_temperature;BME280_humidity;BME280_pressure;Samples;Min_cycle;Max_cycle;Signal;HPM_P1;HPM_P2
2024/03/18 00:02:25;;;;;;;14.80;6.35;;;;;;;8.56;100.00;96800.16;5054638;28;20108;-67
2024/03/18 00:04:52;;;;;;;12.30;6.38;;;;;;;8.64;100.00;96806.56;5070048;28;20127;-65
2024/03/18 00:07:19;;;;;;;15.52;7.07;;;;;;;8.73;100.00;96802.56;5053096;28;20044;-66
2024/03/18 00:09:45;;;;;;;12.88;7.43;;;;;;;8.76;100.00;96790.91;5047771;28;20068;-66
2024/03/18 00:12:11;;;;;;;13.43;6.65;;;;;;;8.79;100.00;96792.94;5020318;28;20048;-66
2024/03/18 00:14:37;;;;;;;16.58;6.47;;;;;;;8.71;100.00;96790.38;5030167;28;20045;-67
2024/03/18 00:17:05;;;;;;;17.95;6.80;;;;;;;8.56;100.00;96789.22;5047371;28;20048;-66
2024/03/18 00:19:31;;;;;;;13.02;6.13;;;;;;;8.63;100.00;96794.88;5036369;28;20101;-67
2024/03/18 00:21:57;;;;;;;9.55;7.07;;;;;;;8.60;100.00;96790.09;5056135;28;20048;-67
2024/03/18 00:24:22;;;;;;;14.15;7.05;;;;;;;8.53;100.00;96784.47;5038175;28;20776;-66
2024/03/18 00:26:48;;;;;;;14.57;7.20;;;;;;;8.49;100.00;96789.84;5050382;28;20635;-66
2024/03/18 00:29:13;;;;;;;12.38;6.78;;;;;;;8.47;100.00;96791.34;5051256;28;20676;-67
2024/03/18 00:31:39;;;;;;;12.38;6.65;;;;;;;8.50;100.00;96796.06;5057973;28;20178;-67
2024/03/18 00:34:04;;;;;;;13.38;6.85;;;;;;;8.55;100.00;96782.97;5049490;28;20059;-66
2024/03/18 00:36:30;;;;;;;13.65;6.78;;;;;;;8.54;100.00;96778.66;5061274;28;20075;-67
2024/03/18 00:38:56;;;;;;;14.30;6.97;;;;;;;8.51;100.00;96782.06;5053208;28;20055;-66
2024/03/18 00:44:05;;;;;;;15.43;6.80;;;;;;;8.61;100.00;96773.38;5054380;28;20159;-66
2024/03/18 00:46:31;;;;;;;11.43;6.45;;;;;;;8.61;100.00;96767.13;5051614;28;20473;-66
2024/03/18 00:48:56;;;;;;;12.25;7.13;;;;;;;8.54;100.00;96765.00;5055721;28;20032;-68
2024/03/18 00:51:21;;;;;;;13.30;7.13;;;;;;;8.51;100.00;96768.44;5044978;28;20922;-66
2024/03/18 00:53:47;;;;;;;19.15;6.70;;;;;;;8.54;100.00;96764.22;5045336;28;20768;-65
2024/03/18 00:56:13;;;;;;;11.80;7.05;;;;;;;8.57;100.00;96763.50;5050645;28;20044;-65
2024/03/18 00:58:39;;;;;;;79.78;35.35;;;;;;;8.58;100.00;96762.38;5062914;28;20435;-65
2024/03/18 01:01:06;;;;;;;14.40;7.78;;;;;;;8.55;100.00;96766.59;5056471;28;20036;-66
2024/03/18 01:03:35;;;;;;;17.00;7.60;;;;;;;8.52;100.00;96761.06;5059105;28;20461;-66
2024/03/18 01:06:01;;;;;;;11.40;6.82;;;;;;;8.47;100.00;96750.41;5058473;28;20056;-65
2024/03/18 01:08:26;;;;;;;14.27;7.30;;;;;;;8.53;100.00;96757.94;5053476;28;20044;-66
2024/03/18 01:10:52;;;;;;;13.95;6.78;;;;;;;8.58;100.00;96754.19;5056648;28;20033;-66
2024/03/18 01:13:18;;;;;;;12.55;7.00;;;;;;;8.60;100.00;96751.88;5055415;28;20075;-67
2024/03/18 01:15:44;;;;;;;14.75;7.35;;;;;;;8.57;100.00;96750.66;5061977;28;20056;-65
2024/03/18 01:18:09;;;;;;;12.52;7.07;;;;;;;8.56;100.00;96745.56;5054351;28;20040;-66
2024/03/18 01:20:35;;;;;;;10.85;7.20;;;;;;;8.55;100.00;96741.22;5059611;28;20378;-66
2024/03/18 01:23:05;;;;;;;11.48;7.03;;;;;;;8.51;100.00;96743.88;5060043;28;20545;-66
2024/03/18 01:25:34;;;;;;;12.00;6.78;;;;;;;8.46;100.00;96735.94;5056767;28;20465;-66
2024/03/18 01:27:59;;;;;;;14.90;7.68;;;;;;;8.42;100.00;96735.84;5056568;28;20072;-66
2024/03/18 01:30:25;;;;;;;12.45;6.60;;;;;;;8.36;100.00;96733.72;5048304;28;20267;-66
2024/03/18 01:32:50;;;;;;;11.02;7.28;;;;;;;8.38;100.00;96732.22;5051153;28;20039;-66
2024/03/18 01:35:16;;;;;;;12.02;6.70;;;;;;;8.36;100.00;96722.81;5039184;28;20036;-65
2024/03/18 01:37:45;;;;;;;11.18;7.18;;;;;;;8.35;100.00;96724.72;5041634;28;20048;-66
2024/03/18 01:40:12;;;;;;;14.82;7.13;;;;;;;8.23;100.00;96713.91;5055428;28;20062;-66
2024/03/18 01:42:42;;;;;;;12.68;7.28;;;;;;;8.22;100.00;96715.81;5054683;28;20052;-66
2024/03/18 01:45:09;;;;;;;14.38;7.72;;;;;;;8.19;100.00;96719.28;5038616;28;20037;-65
2024/03/18 01:47:34;;;;;;;14.55;7.35;;;;;;;8.15;100.00;96715.63;5048565;28;20132;-66
2024/03/18 01:50:00;;;;;;;13.38;7.45;;;;;;;8.23;100.00;96717.41;5053226;28;20139;-66
2024/03/18 01:52:26;;;;;;;10.55;7.10;;;;;;;8.29;100.00;96723.41;5047020;28;20060;-66
2024/03/18 01:54:51;;;;;;;15.63;7.82;;;;;;;8.33;100.00;96716.09;5052028;28;20071;-66
2024/03/18 01:57:17;;;;;;;14.32;7.70;;;;;;;8.39;100.00;96714.69;5052531;28;20055;-65
2024/03/18 01:59:43;;;;;;;13.23;7.72;;;;;;;8.38;100.00;96707.66;5058463;28;20044;-66
2024/03/18 02:02:11;;;;;;;12.80;7.43;;;;;;;8.32;100.00;96703.59;5051415;28;20387;-67
2024/03/18 02:04:36;;;;;;;12.15;7.68;;;;;;;8.20;100.00;96699.00;5059839;28;20528;-67
2024/03/18 02:07:18;;;;;;;13.60;8.65;;;;;;;8.12;100.00;96694.53;5069241;28;20072;-69
2024/03/18 02:09:44;;;;;;;12.27;8.75;;;;;;;8.00;100.00;96700.84;5064534;28;20045;-68
2024/03/18 02:12:11;;;;;;;17.02;8.98;;;;;;;7.85;100.00;96693.44;5053875;28;20434;-68
2024/03/18 02:14:36;;;;;;;14.75;9.73;;;;;;;7.75;100.00;96699.38;5060313;28;20706;-68
2024/03/18 02:17:03;;;;;;;21.42;10.07;;;;;;;7.58;100.00;96693.09;5055846;28;20060;-68
2024/03/18 02:19:29;;;;;;;18.25;9.75;;;;;;;7.55;100.00;96695.72;5032007;28;20139;-68
2024/03/18 02:21:55;;;;;;;18.25;10.35;;;;;;;7.55;100.00;96701.19;5046349;28;20132;-67
2024/03/18 02:24:21;;;;;;;15.98;9.52;;;;;;;7.61;100.00;96702.50;5053902;28;21556;-66
2024/03/18 02:26:47;;;;;;;16.13;9.68;;;;;;;7.62;100.00;96698.66;5050345;28;20051;-68
2024/03/18 02:29:13;;;;;;;17.40;8.95;;;;;;;7.62;100.00;96690.47;5043519;28;20048;-67
2024/03/18 02:31:38;;;;;;;17.15;8.23;;;;;;;7.59;100.00;96689.22;5049858;28;20048;-68
2024/03/18 02:34:04;;;;;;;15.35;7.57;;;;;;;7.56;100.00;96684.47;5048436;28;20041;-68
2024/03/18 02:36:29;;;;;;;15.98;7.72;;;;;;;7.53;100.00;96681.66;5056268;28;20045;-67
2024/03/18 02:38:56;;;;;;;15.60;8.82;;;;;;;7.53;100.00;96678.94;5073379;28;20109;-67
2024/03/18 02:41:22;;;;;;;14.82;8.02;;;;;;;7.49;100.00;96683.47;5043688;28;20048;-67
2024/03/18 02:43:47;;;;;;;14.85;8.30;;;;;;;7.45;100.00;96676.00;5051482;28;20581;-67
2024/03/18 02:46:13;;;;;;;14.40;8.48;;;;;;;7.50;100.00;96668.72;5039439;28;20058;-67
2024/03/18 02:48:38;;;;;;;11.45;7.30;;;;;;;7.61;100.00;96670.56;5054307;28;20142;-67
2024/03/18 02:51:07;;;;;;;11.65;7.57;;;;;;;7.69;100.00;96666.13;5045489;28;20068;-67
2024/03/18 02:53:33;;;;;;;16.30;7.93;;;;;;;7.90;100.00;96665.88;5049839;28;20110;-67
2024/03/18 02:55:59;;;;;;;17.30;6.65;;;;;;;8.03;100.00;96659.22;5049726;28;20048;-66
2024/03/18 02:58:25;;;;;;;12.23;6.30;;;;;;;7.94;100.00;96652.34;5035874;28;20052;-67
2024/03/18 03:00:51;;;;;;;12.05;5.70;;;;;;;7.79;100.00;96648.47;5055177;28;20036;-67
2024/03/18 03:03:17;;;;;;;10.20;5.57;;;;;;;7.81;100.00;96638.81;5044312;28;20045;-67
2024/03/18 03:05:43;;;;;;;9.55;5.97;;;;;;;7.92;100.00;96644.50;5057882;28;20037;-68
2024/03/18 03:08:08;;;;;;;8.52;5.78;;;;;;;7.95;100.00;96643.03;5053640;28;20094;-67
2024/03/18 03:10:33;;;;;;;10.07;6.22;;;;;;;7.85;100.00;96639.69;5068050;28;20102;-67
2024/03/18 03:12:59;;;;;;;12.65;6.18;;;;;;;7.86;100.00;96640.47;5062043;28;20052;-68
2024/03/18 03:15:24;;;;;;;8.90;6.18;;;;;;;7.91;100.00;96639.44;5053214;28;20247;-68
2024/03/18 03:17:50;;;;;;;14.88;6.32;;;;;;;7.96;100.00;96639.97;5052358;28;20051;-68
2024/03/18 03:20:19;;;;;;;14.65;6.07;;;;;;;7.89;100.00;96631.59;5053539;28;20044;-67
2024/03/18 03:22:45;;;;;;;11.57;6.90;;;;;;;7.74;100.00;96641.34;5058919;28;20040;-67
2024/03/18 03:25:10;;;;;;;12.63;7.40;;;;;;;7.69;100.00;96629.88;5044140;28;20441;-67
2024/03/18 03:27:36;;;;;;;15.90;7.40;;;;;;;7.66;100.00;96632.16;5031190;28;20455;-66
2024/03/18 03:30:03;;;;;;;14.40;7.43;;;;;;;7.67;100.00;96622.06;5048268;28;20455;-67
2024/03/18 03:32:28;;;;;;;10.88;6.70;;;;;;;7.64;100.00;96622.75;5045099;28;20143;-66
2024/03/18 03:34:53;;;;;;;11.68;6.25;;;;;;;7.66;100.00;96631.38;5041230;28;20127;-66
2024/03/18 03:37:19;;;;;;;10.48;6.97;;;;;;;7.69;100.00;96633.41;5053061;28;20048;-67
2024/03/18 03:39:45;;;;;;;11.43;6.70;;;;;;;7.73;100.00;96636.25;5049357;28;20051;-67
2024/03/18 03:42:10;;;;;;;15.73;6.75;;;;;;;7.72;100.00;96621.78;5048318;28;20069;-67
2024/03/18 03:44:36;;;;;;;14.68;6.35;;;;;;;7.73;100.00;96626.13;5056905;28;20049;-67
2024/03/18 03:47:01;;;;;;;12.10;6.80;;;;;;;7.77;100.00;96621.53;5056977;28;20083;-67
2024/03/18 03:49:28;;;;;;;10.15;6.05;;;;;;;7.77;100.00;96626.22;5045422;28;20056;-67
2024/03/18 03:51:55;;;;;;;9.75;6.18;;;;;;;7.79;100.00;96621.19;5049697;28;20124;-66
2024/03/18 03:54:20;;;;;;;10.88;6.22;;;;;;;7.75;100.00;96623.84;5052148;28;20534;-68
2024/03/18 03:56:46;;;;;;;9.88;6.00;;;;;;;7.75;100.00;96625.78;5047231;28;20045;-68
2024/03/18 03:59:11;;;;;;;12.75;6.80;;;;;;;7.69;100.00;96613.53;5042683;28;20041;-68
2024/03/18 04:01:36;;;;;;;10.18;5.30;;;;;;;7.63;100.00;96618.44;5054308;28;20499;-68
2024/03/18 04:04:02;;;;;;;10.80;6.85;;;;;;;7.78;100.00;96614.97;5051335;28;20044;-69
2024/03/18 04:06:28;;;;;;;10.77;6.53;;;;;;;7.91;100.00;96615.66;5047998;28;20060;-68
2024/03/18 04:08:53;;;;;;;11.23;6.50;;;;;;;7.83;100.00;96611.97;5054752;28;20040;-68
2024/03/18 04:11:18;;;;;;;8.73;6.22;;;;;;;7.87;100.00;96609.34;5067176;28;20020;-66
2024/03/18 04:13:45;;;;;;;17.63;7.13;;;;;;;7.92;100.00;96611.78;5042591;28;20037;-67
2024/03/18 04:16:10;;;;;;;11.48;6.70;;;;;;;8.04;100.00;96606.25;5038123;28;20045;-67
2024/03/18 04:18:36;;;;;;;10.75;6.35;;;;;;;8.18;100.00;96600.34;5040725;28;20051;-66
2024/03/18 04:21:03;;;;;;;15.45;8.13;;;;;;;8.28;100.00;96600.97;5075658;28;20037;-67
2024/03/18 04:23:29;;;;;;;14.05;8.00;;;;;;;8.22;100.00;96590.31;5054395;28;20049;-67
2024/03/18 04:25:56;;;;;;;15.10;8.90;;;;;;;8.22;100.00;96592.25;5050959;28;20037;-70
2024/03/18 04:28:22;;;;;;;17.45;11.05;;;;;;;8.20;100.00;96587.16;5042461;28;20220;-67
2024/03/18 04:30:47;;;;;;;17.85;10.63;;;;;;;8.15;100.00;96581.16;5048706;28;20673;-67
2024/03/18 04:33:13;;;;;;;18.73;10.35;;;;;;;8.07;100.00;96579.41;5043853;28;20044;-67
2024/03/18 04:35:38;;;;;;;15.63;9.98;;;;;;;7.85;100.00;96581.63;5048926;28;20049;-67
2024/03/18 04:38:03;;;;;;;14.32;9.18;;;;;;;7.73;100.00;96571.59;5054396;28;20067;-68
2024/03/18 04:40:29;;;;;;;13.95;8.43;;;;;;;7.68;100.00;96571.06;5057968;28;20052;-68
2024/03/18 04:42:56;;;;;;;18.25;9.63;;;;;;;7.68;100.00;96582.75;5052158;28;20040;-68
2024/03/18 04:45:22;;;;;;;13.35;7.50;;;;;;;7.75;100.00;96579.44;5048500;28;20044;-67
2024/03/18 04:47:52;;;;;;;15.10;7.75;;;;;;;7.85;100.00;96581.63;5046668;28;20045;-67
2024/03/18 04:50:25;;;;;;;14.98;9.27;;;;;;;7.93;100.00;96575.19;5040593;28;20045;-67
2024/03/18 04:52:53;;;;;;;17.67;9.65;;;;;;;7.93;100.00;96577.16;5049447;28;20040;-67
2024/03/18 04:55:20;;;;;;;13.02;9.40;;;;;;;7.89;100.00;96570.81;5037738;28;20044;-67
2024/03/18 04:57:45;;;;;;;18.20;9.77;;;;;;;7.90;100.00;96565.00;5056146;28;20044;-67
2024/03/18 05:00:14;;;;;;;18.35;8.85;;;;;;;8.00;100.00;96569.13;5044422;28;20094;-67
2024/03/18 05:02:40;;;;;;;15.40;9.38;;;;;;;8.00;100.00;96569.91;5049312;28;20162;-68
2024/03/18 05:05:06;;;;;;;15.50;9.27;;;;;;;8.03;100.00;96569.22;5045944;28;20694;-68
2024/03/18 05:07:32;;;;;;;15.63;9.98;;;;;;;7.85;100.00;96560.59;5057515;28;20050;-68
2024/03/18 05:09:59;;;;;;;13.32;9.27;;;;;;;7.78;100.00;96559.66;5036316;28;20128;-67
2024/03/18 05:12:24;;;;;;;19.60;10.68;;;;;;;7.69;100.00;96559.00;5044049;28;20078;-67
2024/03/18 05:14:53;;;;;;;18.15;9.73;;;;;;;7.59;100.00;96558.38;5038137;28;20036;-66
2024/03/18 05:17:19;;;;;;;18.25;9.80;;;;;;;7.69;100.00;96564.44;5044811;28;20044;-67
2024/03/18 05:19:45;;;;;;;15.93;9.13;;;;;;;7.75;100.00;96563.06;5047856;28;20041;-66
2024/03/18 05:22:12;;;;;;;17.52;8.75;;;;;;;7.71;100.00;96556.75;5042273;28;20079;-67
2024/03/18 05:24:38;;;;;;;15.50;9.20;;;;;;;7.70;100.00;96550.47;5058382;28;20102;-67
2024/03/18 05:27:04;;;;;;;13.05;8.63;;;;;;;7.63;100.00;96558.47;5044410;28;20045;-67
2024/03/18 05:29:29;;;;;;;19.17;9.23;;;;;;;7.58;100.00;96553.28;5048786;28;20049;-66
2024/03/18 05:31:54;;;;;;;17.15;9.65;;;;;;;7.42;100.00;96547.84;5058500;28;20068;-67
2024/03/18 05:34:20;;;;;;;15.50;9.50;;;;;;;7.37;100.00;96553.53;5051374;28;20048;-67
2024/03/18 05:36:45;;;;;;;23.20;10.70;;;;;;;7.28;100.00;96543.56;5052768;28;20094;-67
2024/03/18 05:39:11;;;;;;;15.25;8.57;;;;;;;7.21;100.00;96546.09;5054618;28;20070;-67
2024/03/18 05:41:36;;;;;;;16.00;8.80;;;;;;;7.16;100.00;96549.06;5060488;28;20614;-68
2024/03/18 05:44:02;;;;;;;13.05;8.27;;;;;;;7.14;100.00;96545.13;5052890;28;20032;-68
2024/03/18 05:46:28;;;;;;;14.68;9.23;;;;;;;7.09;100.00;96543.44;5061140;28;20495;-68
2024/03/18 05:48:53;;;;;;;18.65;9.88;;;;;;;7.10;100.00;96542.31;5040962;28;20044;-68
2024/03/18 05:51:19;;;;;;;16.25;9.68;;;;;;;7.09;100.00;96546.16;5036185;28;20035;-68
2024/03/18 05:53:44;;;;;;;13.82;8.73;;;;;;;7.06;100.00;96536.78;5059670;28;20621;-67
2024/03/18 05:56:10;;;;;;;18.20;10.75;;;;;;;7.07;100.00;96537.56;5048367;28;20033;-67
2024/03/18 05:58:41;;;;;;;56.53;27.42;;;;;;;7.11;100.00;96534.94;5035285;28;20051;-67
2024/03/18 06:01:10;;;;;;;36.50;20.17;;;;;;;7.12;100.00;96537.31;5054615;28;20120;-67
2024/03/18 06:03:37;;;;;;;19.92;13.20;;;;;;;7.11;100.00;96532.97;5060480;28;20040;-66
2024/03/18 06:06:05;;;;;;;21.45;12.63;;;;;;;7.15;100.00;96528.44;5058876;28;20667;-67
2024/03/18 06:08:32;;;;;;;24.70;14.68;;;;;;;7.19;100.00;96529.31;5035026;28;20052;-67
2024/03/18 06:10:57;;;;;;;20.50;12.80;;;;;;;7.19;100.00;96525.81;5049523;28;20037;-67
2024/03/18 06:13:22;;;;;;;26.23;12.82;;;;;;;7.21;100.00;96529.75;5037763;28;20075;-67
2024/03/18 06:15:48;;;;;;;21.90;13.88;;;;;;;7.26;100.00;96524.06;5075911;28;20075;-67
2024/03/18 06:18:13;;;;;;;25.83;14.13;;;;;;;7.46;100.00;96530.41;5056443;28;20035;-67
2024/03/18 06:20:43;;;;;;;25.67;15.05;;;;;;;7.50;100.00;96525.06;5057964;28;20135;-67
2024/03/18 06:23:11;;;;;;;27.27;15.55;;;;;;;7.54;100.00;96520.47;5042382;28;20706;-67
2024/03/18 06:25:57;;;;;;;25.17;14.57;;;;;;;7.58;100.00;96524.13;5049613;28;20056;-67
2024/03/18 06:28:28;;;;;;;23.13;15.52;;;;;;;7.62;100.00;96529.66;5048384;28;20044;-67
2024/03/18 06:30:57;;;;;;;29.50;15.50;;;;;;;7.57;100.00;96527.97;5050693;28;20713;-67
2024/03/18 06:33:23;;;;;;;29.33;17.75;;;;;;;7.60;100.00;96530.00;5051797;28;20055;-67
2024/03/18 06:35:51;;;;;;;21.75;14.88;;;;;;;7.74;100.00;96529.56;5060339;28;20044;-67
2024/03/18 06:38:17;;;;;;;26.50;14.88;;;;;;;7.93;100.00;96526.13;5049943;28;20128;-67
2024/03/18 06:40:43;;;;;;;39.22;21.33;;;;;;;7.85;100.00;96525.16;5057519;28;20159;-68
2024/03/18 06:43:09;;;;;;;68.45;33.53;;;;;;;7.87;100.00;96524.00;5043675;28;20044;-68
2024/03/18 06:45:35;;;;;;;43.35;25.73;;;;;;;7.94;100.00;96521.44;5056366;28;20044;-67
2024/03/18 06:48:03;;;;;;;27.30;14.05;;;;;;;7.97;100.00;96521.53;5055429;28;20099;-67
2024/03/18 06:50:29;;;;;;;25.42;13.63;;;;;;;7.90;100.00;96515.13;5047442;28;20049;-67
2024/03/18 06:52:55;;;;;;;25.30;14.45;;;;;;;7.80;100.00;96513.72;5040108;28;20041;-68
2024/03/18 06:55:20;;;;;;;20.50;12.48;;;;;;;7.78;100.00;96507.84;5041935;28;20121;-68
2024/03/18 06:57:46;;;;;;;27.25;15.60;;;;;;;7.76;100.00;96513.66;5058894;28;20044;-68
2024/03/18 07:00:12;;;;;;;17.27;11.30;;;;;;;7.85;100.00;96510.75;5035666;28;20593;-68
2024/03/18 07:02:38;;;;;;;21.55;12.25;;;;;;;7.96;100.00;96513.69;5050821;28;20059;-68
2024/03/18 07:05:04;;;;;;;24.58;15.70;;;;;;;8.17;100.00;96514.19;5048209;28;20032;-68
2024/03/18 07:07:29;;;;;;;27.05;15.52;;;;;;;8.31;100.00;96511.00;5059427;28;20164;-68
2024/03/18 07:09:55;;;;;;;24.02;14.05;;;;;;;8.45;100.00;96498.84;5042677;28;20468;-67
2024/03/18 07:12:20;;;;;;;27.30;15.48;;;;;;;8.51;100.00;96503.66;5046432;28;20497;-67
2024/03/18 07:14:47;;;;;;;24.60;14.43;;;;;;;8.32;100.00;96509.84;5052655;28;20044;-68
2024/03/18 07:17:15;;;;;;;19.88;12.52;;;;;;;8.37;100.00;96506.03;5073128;28;20032;-68
2024/03/18 07:19:40;;;;;;;33.97;20.02;;;;;;;8.69;100.00;96505.97;5060667;28;20384;-68
2024/03/18 07:22:07;;;;;;;29.35;18.38;;;;;;;8.86;100.00;96510.19;5056089;28;20094;-68
2024/03/18 07:24:35;;;;;;;26.88;15.25;;;;;;;8.89;100.00;96501.28;5060351;28;20068;-68
2024/03/18 07:27:00;;;;;;;26.25;15.88;;;;;;;8.84;100.00;96507.03;5058840;28;20133;-68
2024/03/18 07:29:25;;;;;;;31.88;16.88;;;;;;;8.72;100.00;96511.50;5055622;28;20114;-68
2024/03/18 07:31:56;;;;;;;33.65;16.05;;;;;;;8.80;100.00;96513.25;5059403;28;20143;-68
2024/03/18 07:34:23;;;;;;;27.15;14.85;;;;;;;8.96;100.00;96513.13;5047353;28;20794;-67
2024/03/18 07:36:49;;;;;;;26.13;14.93;;;;;;;9.09;100.00;96504.78;5046470;28;20132;-67
2024/03/18 07:39:14;;;;;;;24.38;12.23;;;;;;;9.29;100.00;96508.28;5040428;28;20147;-67
2024/03/18 07:41:39;;;;;;;20.48;12.32;;;;;;;9.39;100.00;96513.16;5059206;28;20063;-67
2024/03/18 07:44:05;;;;;;;18.85;11.40;;;;;;;9.46;100.00;96507.03;5044329;28;20040;-67
2024/03/18 07:46:30;;;;;;;20.52;11.35;;;;;;;9.56;100.00;96501.75;5051148;28;20791;-67
2024/03/18 07:48:56;;;;;;;18.73;11.30;;;;;;;9.54;100.00;96489.59;5052046;28;20044;-67
2024/03/18 07:51:21;;;;;;;13.82;9.07;;;;;;;9.51;100.00;96493.84;5054515;28;20590;-67
2024/03/18 07:53:46;;;;;;;17.23;10.05;;;;;;;9.30;100.00;96498.94;5033522;28;20049;-68
2024/03/18 07:56:12;;;;;;;16.98;9.07;;;;;;;9.39;100.00;96491.28;5053725;28;20076;-67
2024/03/18 07:58:37;;;;;;;16.15;8.85;;;;;;;9.45;100.00;96491.78;5058381;28;20059;-67
2024/03/18 08:01:03;;;;;;;13.95;7.93;;;;;;;9.40;100.00;96487.41;5055575;28;20074;-67
2024/03/18 08:03:28;;;;;;;13.10;8.27;;;;;;;9.20;100.00;96494.88;5059354;28;20202;-68
2024/03/18 08:05:54;;;;;;;15.65;9.07;;;;;;;9.31;100.00;96486.84;5048713;28;20035;-68
2024/03/18 08:08:19;;;;;;;16.50;8.38;;;;;;;9.31;100.00;96489.56;5047014;28;20053;-67
2024/03/18 08:10:45;;;;;;;12.15;8.68;;;;;;;9.36;100.00;96486.56;5059407;28;20043;-68
2024/03/18 08:13:12;;;;;;;21.20;9.35;;;;;;;9.34;100.00;96494.31;5051954;28;20441;-67
2024/03/18 08:15:40;;;;;;;14.30;8.30;;;;;;;9.41;100.00;96488.19;5058718;28;20542;-67
2024/03/18 08:18:06;;;;;;;15.68;8.52;;;;;;;9.41;100.00;96497.19;5065862;28;20631;-68
2024/03/18 08:20:32;;;;;;;21.63;10.57;;;;;;;8.87;100.00;96489.94;5067084;28;20824;-68
2024/03/18 08:22:59;;;;;;;17.65;9.85;;;;;;;8.69;100.00;96489.59;5059258;28;20054;-68
2024/03/18 08:25:24;;;;;;;17.73;11.27;;;;;;;8.62;100.00;96492.97;5053966;28;20098;-68
2024/03/18 08:27:50;;;;;;;25.25;10.77;;;;;;;8.60;100.00;96498.78;5058357;28;20049;-67
2024/03/18 08:30:16;;;;;;;16.35;10.00;;;;;;;8.82;100.00;96496.47;5054135;28;20048;-67
2024/03/18 08:32:41;;;;;;;18.58;10.55;;;;;;;9.05;100.00;96491.06;5058972;28;20044;-68
2024/03/18 08:35:07;;;;;;;22.20;12.77;;;;;;;8.85;100.00;96494.97;5049872;28;20043;-68
2024/03/18 08:37:33;;;;;;;19.88;11.85;;;;;;;8.67;100.00;96492.69;5058360;28;20098;-68
2024/03/18 08:39:59;;;;;;;33.30;17.52;;;;;;;8.53;100.00;96497.84;5058067;28;20047;-67
2024/03/18 08:42:25;;;;;;;28.83;15.75;;;;;;;8.48;100.00;96498.94;5050378;28;20052;-67
2024/03/18 08:44:51;;;;;;;24.77;13.48;;;;;;;8.52;100.00;96502.53;5050512;28;20045;-66
2024/03/18 08:47:19;;;;;;;25.02;14.70;;;;;;;8.37;100.00;96509.59;5045257;28;20060;-67
2024/03/18 08:49:47;;;;;;;24.10;13.18;;;;;;;8.48;100.00;96509.84;5049365;28;20051;-68
2024/03/18 08:52:13;;;;;;;19.83;13.52;;;;;;;8.50;100.00;96509.47;5043739;28;20218;-66
2024/03/18 08:54:39;;;;;;;28.67;19.15;;;;;;;8.33;100.00;96508.69;5049721;28;20051;-67
2024/03/18 08:57:04;;;;;;;25.38;18.00;;;;;;;8.32;100.00;96512.59;5056535;28;20123;-67
2024/03/18 08:59:30;;;;;;;35.05;22.90;;;;;;;8.31;100.00;96505.53;5054360;28;20099;-67
2024/03/18 09:01:55;;;;;;;27.80;18.98;;;;;;;8.50;100.00;96504.00;5024041;28;20041;-67
2024/03/18 09:04:21;;;;;;;35.58;20.83;;;;;;;8.46;100.00;96509.38;5046271;28;20472;-67
2024/03/18 09:06:46;;;;;;;29.17;17.25;;;;;;;8.57;100.00;96504.97;5055242;28;20411;-66
2024/03/18 09:09:11;;;;;;;23.58;14.07;;;;;;;8.54;100.00;96508.41;5048236;28;20041;-66
2024/03/18 09:11:37;;;;;;;25.48;13.43;;;;;;;8.48;100.00;96514.50;5063194;28;20068;-66
2024/03/18 09:14:05;;;;;;;19.90;13.38;;;;;;;8.50;100.00;96515.72;5045453;28;20049;-68
2024/03/18 09:16:31;;;;;;;22.20;14.07;;;;;;;8.49;100.00;96516.88;5053744;28;20050;-68
2024/03/18 09:18:57;;;;;;;25.13;14.88;;;;;;;8.48;100.00;96518.03;5061822;28;20135;-66
2024/03/18 09:21:23;;;;;;;26.50;13.75;;;;;;;8.55;100.00;96520.09;5041807;28;20045;-67
2024/03/18 09:23:49;;;;;;;25.80;14.23;;;;;;;8.55;100.00;96518.19;5061629;28;20055;-67
2024/03/18 09:26:15;;;;;;;19.50;14.05;;;;;;;8.72;100.00;96527.88;5055560;28;20510;-66
2024/03/18 09:28:40;;;;;;;19.38;12.68;;;;;;;8.79;100.00;96528.03;5060944;28;20052;-67
2024/03/18 09:31:07;;;;;;;22.73;13.07;;;;;;;8.68;100.00;96524.31;5045378;28;20041;-65
2024/03/18 09:33:32;;;;;;;21.50;12.82;;;;;;;8.65;100.00;96526.97;5051261;28;20372;-67
2024/03/18 09:35:58;;;;;;;19.75;12.13;;;;;;;8.73;100.00;96526.75;5052052;28;20059;-67
2024/03/18 09:38:23;;;;;;;21.25;12.85;;;;;;;8.77;100.00;96521.38;5056932;28;20048;-67
2024/03/18 09:40:50;;;;;;;19.38;12.02;;;;;;;8.69;100.00;96530.53;5052526;28;20048;-67
2024/03/18 09:43:15;;;;;;;22.10;13.27;;;;;;;8.82;100.00;96531.19;5049104;28;20040;-67
2024/03/18 09:45:41;;;;;;;20.30;13.30;;;;;;;8.88;100.00;96535.25;5053401;28;20049;-68
2024/03/18 09:48:15;;;;;;;18.38;11.68;;;;;;;9.12;100.00;96542.34;5049823;28;20071;-68
2024/03/18 09:50:42;;;;;;;20.42;12.45;;;;;;;9.27;100.00;96535.19;5053944;28;20044;-68
2024/03/18 09:53:11;;;;;;;18.45;13.15;;;;;;;9.37;100.00;96542.81;5044343;28;20108;-67
2024/03/18 09:55:37;;;;;;;20.48;13.20;;;;;;;9.53;100.00;96540.75;5051636;28;20628;-69
2024/03/18 09:58:04;;;;;;;18.50;12.95;;;;;;;9.59;100.00;96543.97;5041549;28;20122;-67
2024/03/18 10:00:30;;;;;;;20.58;12.88;;;;;;;9.55;100.00;96546.66;5053437;28;20076;-68
2024/03/18 10:02:58;;;;;;;21.75;13.57;;;;;;;9.60;100.00;96544.75;5063194;28;20044;-67
2024/03/18 10:05:24;;;;;;;17.75;11.98;;;;;;;9.85;100.00;96539.72;5039724;28;20136;-67
2024/03/18 10:07:55;;;;;;;17.20;10.70;;;;;;;9.94;100.00;96543.00;5053866;28;20837;-68
2024/03/18 10:10:20;;;;;;;15.10;9.25;;;;;;;9.84;100.00;96552.63;5049896;28;20235;-67
2024/03/18 10:12:49;;;;;;;12.43;8.45;;;;;;;10.03;100.00;96542.75;5052405;28;20127;-66
2024/03/18 10:15:15;;;;;;;12.07;6.32;;;;;;;9.89;100.00;96552.31;5052343;28;20033;-69
2024/03/18 10:17:41;;;;;;;10.48;5.95;;;;;;;9.80;100.00;96540.81;5059324;28;20048;-67
2024/03/18 10:20:21;;;;;;;10.68;5.53;;;;;;;9.77;100.00;96547.81;5049149;28;20036;-68
2024/03/18 10:22:48;;;;;;;8.40;4.70;;;;;;;9.80;100.00;96557.25;5053028;28;20040;-68
2024/03/18 10:25:16;;;;;;;8.38;5.00;;;;;;;9.65;100.00;96558.13;5048835;28;20047;-67
2024/03/18 10:27:44;;;;;;;8.02;4.95;;;;;;;9.73;100.00;96552.44;5061516;28;20061;-67
2024/03/18 10:30:14;;;;;;;6.35;4.05;;;;;;;9.82;100.00;96554.94;5043481;28;20051;-67
2024/03/18 10:32:41;;;;;;;8.32;5.40;;;;;;;9.83;100.00;96563.91;5065268;28;20146;-67
2024/03/18 10:35:32;;;;;;;9.52;3.97;;;;;;;9.73;100.00;96557.91;5046155;28;20056;-67
2024/03/18 10:38:00;;;;;;;9.30;4.30;;;;;;;9.51;100.00;96564.94;5059308;28;20098;-68
2024/03/18 10:40:41;;;;;;;5.50;3.47;;;;;;;9.59;100.00;96565.06;5032930;28;20055;-67
2024/03/18 10:43:14;;;;;;;6.88;3.50;;;;;;;9.58;100.00;96572.50;5045946;28;20411;-67
2024/03/18 10:45:50;;;;;;;6.80;2.95;;;;;;;9.61;100.00;96562.75;5060363;28;20053;-67
2024/03/18 10:48:17;;;;;;;5.57;3.00;;;;;;;9.65;100.00;96569.06;5044347;28;20045;-67
2024/03/18 10:50:45;;;;;;;5.25;3.22;;;;;;;9.66;100.00;96570.66;5050553;28;20403;-67
2024/03/18 10:53:22;;;;;;;7.97;3.30;;;;;;;9.67;100.00;96575.78;5056827;28;20040;-68
2024/03/18 10:55:54;;;;;;;5.72;3.13;;;;;;;9.63;100.00;96574.13;5053817;28;20041;-67
2024/03/18 10:58:26;;;;;;;8.25;3.75;;;;;;;9.56;100.00;96570.13;5044713;28;20106;-67
2024/03/18 11:00:52;;;;;;;5.20;3.50;;;;;;;9.56;100.00;96580.25;5049694;28;20059;-69
2024/03/18 11:03:22;;;;;;;9.55;3.92;;;;;;;9.60;100.00;96583.84;5047783;28;20040;-67
2024/03/18 11:05:54;;;;;;;6.70;3.67;;;;;;;9.31;100.00;96590.69;5051341;28;20041;-66
2024/03/18 11:08:22;;;;;;;8.93;3.75;;;;;;;9.21;100.00;96592.09;5033401;28;20118;-66
2024/03/18 11:10:51;;;;;;;7.45;3.70;;;;;;;9.29;100.00;96595.75;5058232;28;20143;-66
2024/03/18 11:13:19;;;;;;;7.45;3.30;;;;;;;9.18;100.00;96590.06;5031420;28;20131;-67
2024/03/18 11:15:47;;;;;;;9.75;4.43;;;;;;;9.14;100.00;96594.69;5046626;28;20047;-65
2024/03/18 11:18:20;;;;;;;7.97;4.22;;;;;;;9.08;100.00;96596.13;5048137;28;20051;-66
2024/03/18 11:20:54;;;;;;;6.90;4.20;;;;;;;9.15;100.00;96596.28;5060792;28;20528;-66
2024/03/18 11:23:22;;;;;;;8.27;4.30;;;;;;;9.15;100.00;96599.78;5056055;28;20048;-68
2024/03/18 11:26:07;;;;;;;7.93;4.35;;;;;;;9.15;100.00;96599.00;5060248;28;20047;-67